Time;durP1;ratioP1;P1;durP2;ratioP2;P2;SDS_P1;SDS_P2;PMS_P1;PMS_P2;Temp;Humidity;BMP_temperature;BMP_pressure;BME280_temperature;BME280_humidity;BME280_pressure;Samples;Min_cycle;Max_cycle;Signal;HPM_P1;HPM_P2
2022/12/31 00:00:03;;;;;;;3.70;0.50;;;13.50;1.00;;;;;;5068027;28;20413;-53
2022/12/31 00:02:29;;;;;;;4.00;0.70;;;13.50;1.00;;;;;;5068812;28;20426;-50
2022/12/31 00:04:54;;;;;;;3.80;0.50;;;13.60;99.90;;;;;;5068182;28;20876;-50
2022/12/31 00:07:20;;;;;;;3.70;0.50;;;13.60;99.90;;;;;;5050981;28;20395;-50
2022/12/31 00:09:45;;;;;;;3.77;0.40;;;13.70;99.90;;;;;;5072109;28;20848;-50
2022/12/31 00:12:11;;;;;;;4.00;0.60;;;13.70;99.90;;;;;;5072534;28;20383;-50
2022/12/31 00:14:37;;;;;;;4.70;0.70;;;13.80;99.90;;;;;;5072665;28;20384;-50
2022/12/31 00:17:02;;;;;;;3.80;0.60;;;13.80;99.90;;;;;;5058214;28;20401;-50
2022/12/31 00:19:28;;;;;;;4.13;0.60;;;13.80;99.90;;;;;;5060793;28;20398;-51
2022/12/31 00:21:59;;;;;;;3.80;0.50;;;13.80;99.90;;;;;;5071585;28;20420;-51
2022/12/31 00:24:29;;;;;;;4.15;0.60;;;13.80;99.90;;;;;;5071996;28;20450;-50
2022/12/31 00:27:03;;;;;;;3.80;0.40;;;13.80;99.90;;;;;;5071366;28;20392;-50
2022/12/31 00:29:31;;;;;;;3.83;0.50;;;13.90;99.90;;;;;;5072257;28;20375;-50
2022/12/31 00:31:59;;;;;;;4.20;0.70;;;13.90;13.00;;;;;;5071717;28;20380;-51
2022/12/31 00:34:36;;;;;;;4.00;0.57;;;13.90;33.80;;;;;;5068242;28;20400;-50
2022/12/31 00:37:02;;;;;;;4.75;0.68;;;13.90;30.80;;;;;;5071532;28;20471;-50
2022/12/31 00:39:28;;;;;;;5.10;0.80;;;13.80;62.10;;;;;;5072220;28;20478;-50
2022/12/31 00:41:53;;;;;;;4.60;0.70;;;13.90;34.80;;;;;;5070897;28;20422;-50
2022/12/31 00:44:19;;;;;;;4.00;0.60;;;13.90;1.00;;;;;;5071996;28;20937;-50
2022/12/31 00:46:45;;;;;;;4.73;0.50;;;13.80;71.60;;;;;;5071364;28;20388;-53
2022/12/31 00:49:10;;;;;;;3.83;0.50;;;13.90;42.40;;;;;;5071813;28;20383;-51
2022/12/31 00:51:45;;;;;;;4.10;0.60;;;13.80;61.20;;;;;;5072277;28;20384;-50
2022/12/31 00:54:11;;;;;;;4.10;0.60;;;13.80;99.90;;;;;;5072285;28;20746;-50
2022/12/31 00:56:37;;;;;;;4.40;0.80;;;13.80;76.30;;;;;;5071567;28;20888;-52
2022/12/31 00:59:03;;;;;;;4.43;0.88;;;13.80;99.90;;;;;;5071533;28;20388;-50
2022/12/31 01:01:40;;;;;;;3.70;0.50;;;13.80;99.90;;;;;;5071552;28;20519;-50
2022/12/31 01:04:20;;;;;;;3.75;0.60;;;13.80;99.90;;;;;;5071313;28;20395;-50
2022/12/31 01:06:52;;;;;;;3.80;0.50;;;13.80;99.90;;;;;;5070658;28;20873;-51
2022/12/31 01:09:17;;;;;;;4.03;0.65;;;13.90;99.90;;;;;;5072045;28;20477;-50
2022/12/31 01:11:43;;;;;;;4.10;0.70;;;13.80;99.90;;;;;;5070338;28;20867;-57
2022/12/31 01:14:12;;;;;;;3.90;0.70;;;13.90;99.90;;;;;;5071612;28;20384;-50
2022/12/31 01:16:55;;;;;;;5.20;0.80;;;13.80;99.90;;;;;;5071562;28;20861;-50
2022/12/31 01:19:29;;;;;;;4.20;0.80;;;13.90;93.20;;;;;;5071534;28;20410;-50
2022/12/31 01:21:56;;;;;;;4.30;0.90;;;13.90;99.90;;;;;;5070205;28;20925;-50
2022/12/31 01:24:21;;;;;;;4.20;0.63;;;13.90;99.90;;;;;;5071358;28;20475;-50
2022/12/31 01:26:47;;;;;;;4.30;0.70;;;13.90;34.10;;;;;;5070774;28;20428;-52
2022/12/31 01:29:13;;;;;;;4.00;0.60;;;13.80;99.90;;;;;;5071328;28;20406;-51
2022/12/31 01:31:40;;;;;;;4.40;0.70;;;13.80;99.90;;;;;;5071334;28;20399;-51
2022/12/31 01:34:06;;;;;;;3.80;0.50;;;13.80;99.90;;;;;;5070396;28;20462;-54
2022/12/31 01:36:38;;;;;;;3.80;0.50;;;13.80;99.90;;;;;;5070388;28;20465;-50
2022/12/31 01:39:09;;;;;;;3.70;0.50;;;13.80;99.90;;;;;;5070189;28;20716;-51
2022/12/31 01:41:45;;;;;;;3.80;0.70;;;13.60;99.90;;;;;;5070591;28;20891;-50
2022/12/31 01:44:11;;;;;;;4.18;0.60;;;13.70;99.90;;;;;;5071048;28;20455;-50
2022/12/31 01:46:45;;;;;;;4.20;0.70;;;13.60;99.90;;;;;;5071346;28;20953;-50
2022/12/31 01:52:30;;;;;;;4.05;0.70;;;13.60;99.90;;;;;;5037748;28;20404;-50
2022/12/31 01:55:07;;;;;;;3.90;0.63;;;13.50;99.90;;;;;;5059805;28;20481;-50
2022/12/31 01:57:40;;;;;;;3.80;0.60;;;13.50;99.90;;;;;;5069815;28;20395;-50
2022/12/31 02:00:06;;;;;;;4.20;0.70;;;13.40;99.90;;;;;;5068894;28;20407;-50
2022/12/31 02:02:35;;;;;;;6.70;0.80;;;13.40;99.90;;;;;;5070030;28;20876;-50
2022/12/31 02:05:31;;;;;;;5.25;0.63;;;13.30;99.90;;;;;;5069996;28;20458;-51
2022/12/31 02:08:06;;;;;;;5.50;0.80;;;13.30;99.90;;;;;;5069454;28;20840;-50
2022/12/31 02:10:32;;;;;;;3.90;0.70;;;13.30;99.90;;;;;;5070368;28;20717;-50
2022/12/31 02:13:07;;;;;;;4.15;0.85;;;13.30;99.90;;;;;;5069698;28;20388;-51
2022/12/31 02:15:47;;;;;;;5.90;0.70;;;13.30;99.90;;;;;;5070568;28;20493;-51
2022/12/31 02:18:21;;;;;;;3.90;0.60;;;13.30;99.90;;;;;;5070796;28;20743;-51
2022/12/31 02:21:08;;;;;;;7.50;0.87;;;13.20;99.90;;;;;;5069371;28;20411;-56
2022/12/31 02:24:02;;;;;;;4.30;0.68;;;13.20;99.90;;;;;;5064098;28;20399;-50
2022/12/31 02:26:54;;;;;;;4.00;0.70;;;13.20;99.90;;;;;;5050405;28;20393;-50
2022/12/31 02:29:50;;;;;;;5.60;0.80;;;13.20;99.90;;;;;;5050405;28;20431;-50
2022/12/31 02:32:26;;;;;;;3.92;0.63;;;13.20;99.90;;;;;;5049713;28;20935;-50
2022/12/31 02:35:23;;;;;;;6.65;0.90;;;13.20;99.90;;;;;;5049160;28;20470;-50
2022/12/31 02:37:55;;;;;;;4.20;0.70;;;13.30;99.90;;;;;;5049042;28;20402;-50
2022/12/31 02:40:24;;;;;;;4.00;0.70;;;13.40;1.00;;;;;;5049888;28;20416;-50
2022/12/31 02:43:06;;;;;;;5.00;0.73;;;13.50;1.00;;;;;;5048219;28;20425;-50
2022/12/31 02:45:44;;;;;;;4.80;0.70;;;13.60;1.00;;;;;;5049976;28;20408;-52
2022/12/31 02:48:30;;;;;;;4.20;0.80;;;13.60;99.90;;;;;;5049415;28;20446;-51
2022/12/31 02:51:26;;;;;;;4.57;0.70;;;13.60;99.90;;;;;;5049225;28;20438;-50
2022/12/31 02:54:05;;;;;;;4.15;0.70;;;13.60;15.20;;;;;;5049363;28;20882;-49
2022/12/31 02:56:56;;;;;;;4.90;0.80;;;13.50;1.00;;;;;;5049809;28;20422;-49
2022/12/31 03:02:45;;;;;;;4.40;0.80;;;13.40;99.90;;;;;;5049805;28;20396;-52
2022/12/31 03:05:15;;;;;;;4.50;0.70;;;13.50;99.90;;;;;;5030272;28;20417;-49
2022/12/31 03:07:42;;;;;;;5.17;0.80;;;13.50;1.00;;;;;;5049658;28;20490;-49
2022/12/31 03:10:18;;;;;;;4.50;0.70;;;13.50;1.00;;;;;;5048812;28;20398;-49
2022/12/31 03:12:47;;;;;;;4.38;0.70;;;13.60;99.90;;;;;;5049499;28;20381;-54
2022/12/31 03:15:22;;;;;;;4.38;0.80;;;13.70;1.00;;;;;;5049858;28;20870;-49
2022/12/31 03:17:59;;;;;;;4.40;0.70;;;13.70;1.00;;;;;;5057815;28;20403;-53
2022/12/31 03:23:36;;;;;;;5.80;0.70;;;13.80;99.90;;;;;;5049736;28;20838;-51
2022/12/31 03:26:11;;;;;;;5.32;0.75;;;13.90;49.60;;;;;;5048940;28;20423;-50
2022/12/31 03:28:46;;;;;;;5.07;0.80;;;14.00;1.00;;;;;;5048696;28;20936;-50
2022/12/31 03:31:15;;;;;;;4.53;0.80;;;14.00;1.00;;;;;;5049365;28;20425;-50
2022/12/31 03:33:43;;;;;;;4.30;0.70;;;14.00;1.00;;;;;;5049626;28;20409;-50
2022/12/31 03:36:17;;;;;;;3.97;0.65;;;14.10;1.00;;;;;;5049201;28;20743;-50
2022/12/31 03:39:07;;;;;;;4.03;0.60;;;14.10;99.90;;;;;;5049353;28;20377;-50
2022/12/31 03:41:53;;;;;;;5.40;0.90;;;14.10;99.90;;;;;;5049586;28;20450;-49
2022/12/31 03:44:22;;;;;;;4.95;1.00;;;14.20;99.90;;;;;;5056187;28;20389;-49
2022/12/31 03:46:58;;;;;;;4.30;0.70;;;14.20;99.90;;;;;;5060597;28;20427;-56
2022/12/31 03:49:24;;;;;;;3.90;0.60;;;14.20;99.90;;;;;;5076455;28;20434;-49
2022/12/31 03:52:05;;;;;;;5.90;0.80;;;14.30;99.90;;;;;;5075134;28;20472;-49
2022/12/31 03:54:31;;;;;;;4.30;0.68;;;14.30;99.90;;;;;;5075712;28;20383;-49
2022/12/31 03:57:12;;;;;;;6.20;0.90;;;14.40;99.90;;;;;;5074814;28;20861;-50
2022/12/31 03:59:46;;;;;;;4.07;0.60;;;14.50;99.90;;;;;;5066461;28;20395;-49
2022/12/31 04:02:17;;;;;;;4.30;0.80;;;14.50;99.90;;;;;;5076249;28;20490;-50
2022/12/31 04:04:47;;;;;;;4.30;0.70;;;14.60;99.90;;;;;;5075565;28;20407;-49
2022/12/31 04:07:13;;;;;;;4.10;0.55;;;14.60;99.90;;;;;;5075663;28;20440;-51
2022/12/31 04:09:39;;;;;;;4.10;0.50;;;14.60;99.90;;;;;;5075169;28;20392;-49
2022/12/31 04:12:05;;;;;;;5.93;0.80;;;14.70;99.90;;;;;;5074635;28;20478;-49
2022/12/31 04:14:30;;;;;;;4.30;0.80;;;14.60;99.90;;;;;;5075516;28;20857;-49
2022/12/31 04:16:56;;;;;;;4.07;0.50;;;14.60;99.90;;;;;;5074400;28;20453;-49
2022/12/31 04:19:21;;;;;;;4.10;0.60;;;14.70;99.90;;;;;;5075664;28;20955;-49
2022/12/31 04:21:47;;;;;;;4.63;0.80;;;14.70;99.90;;;;;;5075126;28;20413;-56
2022/12/31 04:24:13;;;;;;;5.20;0.70;;;14.80;99.90;;;;;;5075367;28;20387;-50
2022/12/31 04:26:39;;;;;;;4.40;0.80;;;14.80;99.90;;;;;;5075530;28;20783;-49
2022/12/31 04:29:04;;;;;;;4.97;0.80;;;14.80;99.90;;;;;;5075052;28;20387;-50
2022/12/31 04:31:30;;;;;;;5.32;1.20;;;14.80;99.90;;;;;;5075078;28;20379;-51
2022/12/31 04:33:56;;;;;;;7.10;0.70;;;14.80;99.90;;;;;;5073988;28;20855;-49
2022/12/31 04:36:21;;;;;;;4.70;0.70;;;14.80;99.90;;;;;;5056805;28;20492;-51
2022/12/31 04:38:47;;;;;;;4.28;0.60;;;14.90;99.90;;;;;;5065500;28;20441;-56
2022/12/31 04:41:19;;;;;;;4.07;0.60;;;14.90;89.90;;;;;;5074961;28;22006;-52
2022/12/31 04:43:54;;;;;;;4.28;0.70;;;14.90;29.30;;;;;;5075350;28;20403;-52
2022/12/31 04:46:26;;;;;;;4.65;0.85;;;14.90;47.10;;;;;;5074424;28;20434;-50
2022/12/31 04:48:52;;;;;;;4.78;0.70;;;14.90;22.00;;;;;;5074088;28;20873;-53
2022/12/31 04:51:18;;;;;;;4.20;0.70;;;14.90;34.70;;;;;;5075532;28;20437;-49
2022/12/31 04:53:44;;;;;;;4.50;0.60;;;14.80;24.20;;;;;;5073311;28;20384;-50
2022/12/31 04:56:10;;;;;;;4.10;0.60;;;14.80;41.10;;;;;;5070686;28;20528;-52
2022/12/31 04:58:36;;;;;;;4.00;0.50;;;14.80;9.90;;;;;;5072095;28;20384;-52
2022/12/31 05:01:03;;;;;;;4.03;0.50;;;14.80;16.70;;;;;;5065650;28;20435;-49
2022/12/31 05:03:28;;;;;;;3.90;0.60;;;14.80;77.10;;;;;;5071939;28;20419;-51
2022/12/31 05:06:12;;;;;;;4.40;0.50;;;14.80;75.90;;;;;;5071100;28;20445;-49
2022/12/31 05:08:44;;;;;;;4.00;0.60;;;14.80;34.00;;;;;;5069522;28;20799;-49
2022/12/31 05:11:16;;;;;;;4.40;0.90;;;14.90;30.80;;;;;;5071098;28;20449;-49
2022/12/31 05:13:42;;;;;;;4.35;0.70;;;14.90;40.20;;;;;;5071459;28;20395;-50
2022/12/31 05:16:17;;;;;;;4.00;0.60;;;14.80;19.30;;;;;;5071217;28;21033;-52
2022/12/31 05:19:11;;;;;;;4.28;0.60;;;14.90;33.80;;;;;;5071381;28;20398;-49
2022/12/31 05:21:42;;;;;;;4.10;0.60;;;14.80;99.90;;;;;;5071459;28;20433;-49
2022/12/31 05:24:08;;;;;;;4.00;0.60;;;14.90;65.90;;;;;;5070283;28;20467;-49
2022/12/31 05:26:34;;;;;;;4.13;0.60;;;14.90;30.10;;;;;;5070969;28;20474;-49
2022/12/31 05:29:04;;;;;;;4.10;0.60;;;14.90;27.20;;;;;;5070866;28;20388;-49
2022/12/31 05:31:35;;;;;;;4.68;0.60;;;14.90;10.80;;;;;;5071635;28;20469;-49
2022/12/31 05:34:09;;;;;;;4.20;0.70;;;14.90;55.00;;;;;;5069909;28;20494;-50
2022/12/31 05:36:43;;;;;;;5.20;0.85;;;15.00;1.00;;;;;;5071653;28;20435;-50
2022/12/31 05:39:19;;;;;;;4.35;0.65;;;15.00;1.00;;;;;;5070463;28;20428;-53
2022/12/31 05:41:45;;;;;;;5.18;0.68;;;14.90;1.00;;;;;;5071131;28;20470;-50
2022/12/31 05:44:10;;;;;;;4.30;0.70;;;15.00;1.00;;;;;;5070243;28;20805;-50
2022/12/31 05:46:36;;;;;;;3.90;0.50;;;15.00;1.00;;;;;;5071452;28;21033;-50
2022/12/31 05:49:12;;;;;;;4.40;0.60;;;15.10;1.00;;;;;;5070271;28;20718;-50
2022/12/31 05:51:40;;;;;;;5.38;0.90;;;15.20;1.00;;;;;;5070644;28;20474;-51
2022/12/31 05:54:12;;;;;;;4.60;0.80;;;15.20;1.00;;;;;;5070090;28;20399;-51
2022/12/31 05:56:46;;;;;;;4.50;0.80;;;15.20;1.00;;;;;;5070291;28;20949;-51
2022/12/31 05:59:11;;;;;;;4.00;0.50;;;15.30;1.00;;;;;;5070023;28;20436;-51
2022/12/31 06:01:37;;;;;;;7.80;0.80;;;15.30;1.00;;;;;;5070760;28;20420;-50
2022/12/31 06:04:02;;;;;;;4.50;0.60;;;15.30;1.00;;;;;;5054047;28;20403;-50
2022/12/31 06:06:28;;;;;;;4.60;0.80;;;15.40;1.00;;;;;;5066226;28;20757;-51
2022/12/31 06:08:59;;;;;;;4.00;0.60;;;15.40;1.00;;;;;;5069826;28;20753;-51
2022/12/31 06:11:30;;;;;;;4.57;0.80;;;15.40;99.90;;;;;;5070556;28;20527;-50
2022/12/31 06:13:57;;;;;;;4.18;0.60;;;15.40;99.90;;;;;;5069713;28;20893;-50
2022/12/31 06:16:22;;;;;;;4.68;0.80;;;15.40;99.90;;;;;;5069565;28;20392;-52
2022/12/31 06:18:49;;;;;;;6.00;0.60;;;15.40;99.90;;;;;;5070126;28;20453;-58
2022/12/31 06:21:16;;;;;;;4.80;0.70;;;15.40;99.90;;;;;;5070380;28;20411;-52
2022/12/31 06:23:44;;;;;;;4.70;0.70;;;15.40;99.90;;;;;;5070342;28;20416;-51
2022/12/31 06:26:12;;;;;;;4.90;0.70;;;15.40;99.90;;;;;;5069836;28;20433;-53
2022/12/31 06:28:41;;;;;;;4.82;0.70;;;15.40;99.90;;;;;;5070587;28;20395;-51
2022/12/31 06:31:15;;;;;;;4.15;0.60;;;15.30;99.90;;;;;;5069720;28;20507;-52
2022/12/31 06:33:41;;;;;;;4.60;0.70;;;15.30;99.90;;;;;;5070049;28;20438;-52
2022/12/31 06:36:13;;;;;;;4.32;0.70;;;15.30;99.90;;;;;;5069377;28;20395;-51
2022/12/31 06:38:52;;;;;;;4.50;0.80;;;15.20;99.90;;;;;;5070248;28;20410;-51
2022/12/31 06:41:24;;;;;;;4.10;0.60;;;15.30;99.90;;;;;;5069982;28;20515;-52
2022/12/31 06:44:00;;;;;;;5.50;0.88;;;15.30;99.90;;;;;;5069604;28;20392;-57
2022/12/31 06:46:28;;;;;;;4.75;0.90;;;15.30;99.90;;;;;;5070197;28;20520;-52
2022/12/31 06:48:59;;;;;;;4.60;0.80;;;15.20;99.90;;;;;;5069477;28;20612;-53
2022/12/31 06:51:24;;;;;;;4.50;0.70;;;15.30;99.90;;;;;;5069968;28;20872;-52
2022/12/31 06:54:02;;;;;;;4.00;0.60;;;15.30;99.90;;;;;;5070004;28;20380;-58
2022/12/31 06:56:28;;;;;;;5.30;0.70;;;15.30;99.90;;;;;;5069483;28;20439;-51
2022/12/31 06:58:55;;;;;;;4.40;0.75;;;15.20;99.90;;;;;;5069175;28;20399;-52
2022/12/31 07:01:29;;;;;;;4.10;0.70;;;15.20;99.90;;;;;;5069474;28;20498;-51
2022/12/31 07:04:20;;;;;;;4.65;0.90;;;15.20;99.90;;;;;;5066370;28;21183;-51
2022/12/31 07:07:19;;;;;;;4.60;1.00;;;15.20;99.90;;;;;;5067142;28;20512;-51
2022/12/31 07:10:15;;;;;;;4.20;0.60;;;15.20;99.90;;;;;;5068843;28;20841;-51
2022/12/31 07:12:50;;;;;;;4.63;0.80;;;15.10;99.90;;;;;;5069136;28;20419;-51
2022/12/31 07:15:41;;;;;;;4.10;0.70;;;15.10;99.90;;;;;;5069220;28;20403;-51
2022/12/31 07:18:28;;;;;;;4.00;0.50;;;15.10;99.90;;;;;;5067550;28;20429;-52
2022/12/31 07:20:54;;;;;;;4.97;1.15;;;15.20;99.90;;;;;;5068297;28;20411;-51
2022/12/31 07:23:20;;;;;;;4.00;0.55;;;15.20;99.90;;;;;;5069690;28;20398;-51
2022/12/31 07:26:12;;;;;;;4.28;0.80;;;15.20;99.90;;;;;;5069743;28;20925;-51
2022/12/31 07:28:46;;;;;;;4.10;0.60;;;15.10;99.90;;;;;;5045682;28;20509;-51
2022/12/31 07:31:31;;;;;;;4.30;0.70;;;15.20;99.90;;;;;;5068739;28;20720;-51
2022/12/31 07:34:00;;;;;;;4.20;0.60;;;15.00;99.90;;;;;;5038329;28;20412;-51
2022/12/31 07:36:44;;;;;;;4.20;0.80;;;15.00;99.90;;;;;;5047313;28;20417;-51
2022/12/31 07:39:12;;;;;;;4.18;0.70;;;15.00;99.90;;;;;;5048234;28;20907;-51
2022/12/31 07:42:03;;;;;;;4.20;0.68;;;15.00;99.90;;;;;;5042724;28;20412;-54
2022/12/31 07:44:49;;;;;;;4.00;0.60;;;15.10;99.90;;;;;;5049499;28;20420;-51
2022/12/31 07:47:24;;;;;;;4.30;0.60;;;15.10;99.90;;;;;;5049168;28;20397;-50
2022/12/31 07:49:50;;;;;;;4.30;0.80;;;15.20;99.90;;;;;;5047956;28;20846;-56
2022/12/31 07:52:16;;;;;;;4.95;0.70;;;15.10;99.90;;;;;;5048812;28;20397;-50
2022/12/31 07:54:42;;;;;;;4.30;0.80;;;15.10;99.90;;;;;;5047529;28;20530;-51
2022/12/31 07:57:13;;;;;;;4.88;0.80;;;15.10;99.90;;;;;;5042424;28;20476;-52
2022/12/31 07:59:41;;;;;;;4.27;0.70;;;15.30;99.90;;;;;;5045513;28;20422;-52
2022/12/31 08:02:47;;;;;;;4.65;0.70;;;15.40;99.90;;;;;;5048260;28;20470;-52
2022/12/31 08:05:34;;;;;;;4.20;0.60;;;15.30;99.90;;;;;;5048343;28;20397;-52
2022/12/31 08:08:15;;;;;;;4.60;0.70;;;15.30;99.90;;;;;;5031117;28;20945;-52
2022/12/31 08:10:46;;;;;;;4.60;0.70;;;15.40;99.90;;;;;;5046904;28;20890;-53
2022/12/31 08:13:12;;;;;;;4.57;0.70;;;15.50;99.90;;;;;;5047569;28;21215;-56
2022/12/31 08:15:39;;;;;;;4.40;0.68;;;15.50;99.90;;;;;;5047153;28;20401;-53
2022/12/31 08:18:06;;;;;;;4.47;0.60;;;15.60;64.40;;;;;;5048271;28;20405;-52
2022/12/31 08:20:36;;;;;;;4.30;0.70;;;15.60;76.20;;;;;;5048065;28;20474;-53
2022/12/31 08:23:26;;;;;;;5.50;0.90;;;15.60;30.80;;;;;;5046906;28;20977;-52
2022/12/31 08:26:10;;;;;;;4.30;0.70;;;15.60;19.70;;;;;;5042248;28;20438;-57
2022/12/31 08:28:42;;;;;;;4.17;0.63;;;15.60;1.00;;;;;;5048184;28;20438;-51
2022/12/31 08:31:22;;;;;;;4.20;0.70;;;15.70;1.00;;;;;;5048842;28;20446;-51
2022/12/31 08:34:05;;;;;;;4.33;0.60;;;15.70;1.00;;;;;;5047982;28;20450;-52
2022/12/31 08:36:49;;;;;;;5.60;0.80;;;15.70;1.00;;;;;;5069377;28;20465;-51
2022/12/31 08:39:46;;;;;;;4.40;0.80;;;15.60;1.00;;;;;;5070085;28;20398;-52
2022/12/31 08:42:43;;;;;;;5.40;0.85;;;15.70;1.00;;;;;;5069045;28;20414;-54
2022/12/31 08:45:26;;;;;;;4.40;0.90;;;15.70;1.00;;;;;;5066972;28;20487;-51
2022/12/31 08:48:18;;;;;;;4.10;0.70;;;15.70;1.00;;;;;;5069137;28;20414;-57
2022/12/31 08:50:44;;;;;;;4.60;0.70;;;15.70;1.00;;;;;;5071364;28;20406;-52
2022/12/31 08:53:10;;;;;;;7.30;1.50;;;15.70;1.00;;;;;;5068672;28;21036;-53
2022/12/31 08:55:36;;;;;;;4.45;0.70;;;15.80;1.00;;;;;;5072049;28;20396;-53
2022/12/31 08:58:23;;;;;;;4.47;0.80;;;15.70;1.00;;;;;;5070724;28;20483;-52
2022/12/31 09:00:53;;;;;;;4.90;0.77;;;15.80;1.00;;;;;;5071540;28;20476;-59
2022/12/31 09:03:23;;;;;;;4.50;0.80;;;15.90;1.00;;;;;;5071750;28;20391;-53
2022/12/31 09:05:57;;;;;;;4.30;0.70;;;15.80;1.00;;;;;;5070553;28;20519;-58
2022/12/31 09:08:25;;;;;;;5.15;0.90;;;15.80;1.00;;;;;;5071285;28;20452;-51
2022/12/31 09:11:12;;;;;;;4.55;0.70;;;15.80;1.00;;;;;;5068557;28;20446;-58
2022/12/31 09:13:50;;;;;;;4.43;0.80;;;15.90;1.00;;;;;;5069492;28;20767;-51
2022/12/31 09:16:19;;;;;;;4.80;0.85;;;16.10;1.00;;;;;;5069347;28;20442;-52
2022/12/31 09:18:45;;;;;;;5.00;0.90;;;16.20;1.00;;;;;;5071037;28;20404;-52
2022/12/31 09:21:13;;;;;;;4.60;1.00;;;16.50;1.00;;;;;;5070095;28;21057;-53
2022/12/31 09:23:39;;;;;;;4.60;1.00;;;16.90;99.90;;;;;;5053351;28;20404;-52
2022/12/31 09:26:45;;;;;;;4.93;1.08;;;17.40;99.90;;;;;;5058862;28;20469;-54
2022/12/31 09:29:49;;;;;;;5.10;0.90;;;17.70;48.20;;;;;;5070405;28;20488;-52
2022/12/31 09:32:36;;;;;;;4.72;0.90;;;18.00;1.00;;;;;;5070949;28;20453;-53
2022/12/31 09:35:20;;;;;;;5.10;0.90;;;18.20;1.00;;;;;;5068030;28;20429;-52
2022/12/31 09:37:49;;;;;;;5.20;1.00;;;17.80;1.00;;;;;;5070130;28;20971;-53
2022/12/31 09:40:52;;;;;;;4.90;0.85;;;17.60;1.00;;;;;;5070544;28;20383;-54
2022/12/31 09:43:30;;;;;;;5.22;0.82;;;17.50;1.00;;;;;;5056734;28;20410;-56
2022/12/31 09:46:01;;;;;;;4.90;0.90;;;18.20;1.00;;;;;;5068859;28;20387;-56
2022/12/31 09:48:52;;;;;;;4.40;0.70;;;18.10;1.00;;;;;;5069630;28;20399;-54
2022/12/31 09:51:35;;;;;;;5.00;1.00;;;18.10;1.00;;;;;;5066405;28;20907;-53
2022/12/31 09:54:21;;;;;;;6.10;1.00;;;18.30;1.00;;;;;;5070525;28;20376;-53
2022/12/31 09:57:22;;;;;;;5.00;0.70;;;18.30;1.00;;;;;;5071404;28;20553;-53
2022/12/31 09:59:48;;;;;;;4.75;0.90;;;18.50;1.00;;;;;;5071168;28;20406;-59
2022/12/31 10:02:20;;;;;;;4.70;0.90;;;18.70;1.00;;;;;;5069405;28;20999;-53
2022/12/31 10:04:57;;;;;;;4.80;0.90;;;19.10;1.00;;;;;;5069580;28;20490;-56
2022/12/31 10:07:41;;;;;;;4.90;0.90;;;19.50;99.90;;;;;;5070603;28;20402;-58
2022/12/31 10:10:33;;;;;;;4.60;0.80;;;19.80;99.90;;;;;;5068135;28;20400;-59
2022/12/31 10:13:22;;;;;;;4.40;0.70;;;19.70;99.90;;;;;;5069445;28;20392;-58
2022/12/31 10:16:26;;;;;;;4.80;0.93;;;19.40;99.90;;;;;;5049906;28;20383;-65
2022/12/31 10:19:19;;;;;;;4.40;0.77;;;19.20;46.40;;;;;;5031968;28;20426;-65
2022/12/31 10:21:51;;;;;;;5.47;1.00;;;19.10;49.70;;;;;;5072930;28;20907;-58
2022/12/31 10:24:26;;;;;;;5.40;0.90;;;19.20;53.80;;;;;;5080638;28;20404;-61
2022/12/31 10:26:58;;;;;;;4.95;0.93;;;19.10;49.00;;;;;;5065512;28;20457;-65
2022/12/31 10:29:46;;;;;;;7.55;0.77;;;19.50;82.30;;;;;;5071985;28;20726;-60
2022/12/31 10:32:27;;;;;;;4.70;0.93;;;19.70;99.90;;;;;;5080353;28;20396;-62
2022/12/31 10:34:54;;;;;;;5.80;0.80;;;19.80;99.90;;;;;;5049325;28;20401;-63
2022/12/31 10:37:47;;;;;;;4.60;0.90;;;20.00;99.90;;;;;;5056956;28;20407;-60
2022/12/31 10:40:22;;;;;;;5.03;0.93;;;20.40;58.30;;;;;;5062580;28;20407;-66
2022/12/31 10:43:09;;;;;;;4.50;0.90;;;20.20;38.10;;;;;;5073500;28;20486;-68
2022/12/31 10:45:46;;;;;;;4.68;1.17;;;20.20;26.70;;;;;;5073290;28;20427;-68
2022/12/31 10:48:30;;;;;;;4.47;0.90;;;19.90;66.90;;;;;;5056043;28;20414;-66
2022/12/31 10:51:24;;;;;;;4.53;1.10;;;20.00;69.90;;;;;;5071486;28;20436;-75
2022/12/31 10:54:28;;;;;;;8.20;1.30;;;19.80;60.80;;;;;;5054807;28;20388;-75
2022/12/31 10:57:14;;;;;;;4.88;1.00;;;20.00;60.00;;;;;;5061321;28;20392;-73
2022/12/31 10:59:54;;;;;;;4.60;1.17;;;20.30;54.60;;;;;;5063872;28;20536;-62
2022/12/31 11:02:38;;;;;;;5.80;1.20;;;20.40;52.00;;;;;;5063223;28;20419;-61
2022/12/31 11:05:12;;;;;;;5.30;1.00;;;20.60;48.50;;;;;;5061695;28;20474;-63
2022/12/31 11:07:46;;;;;;;4.67;1.20;;;20.40;44.80;;;;;;5073662;28;20428;-61
2022/12/31 11:10:49;;;;;;;4.87;1.20;;;20.10;43.20;;;;;;5072445;28;20890;-61
2022/12/31 11:13:41;;;;;;;4.60;1.17;;;20.30;41.90;;;;;;5077386;28;20411;-62
2022/12/31 11:16:19;;;;;;;4.93;1.30;;;20.20;39.10;;;;;;5075267;28;20370;-61
2022/12/31 11:18:47;;;;;;;4.50;1.00;;;20.50;40.90;;;;;;5084238;28;20854;-61
2022/12/31 11:21:37;;;;;;;5.47;1.10;;;20.30;42.90;;;;;;5072144;28;20430;-61
2022/12/31 11:24:23;;;;;;;5.45;1.20;;;20.20;42.70;;;;;;5081125;28;20472;-61
2022/12/31 11:27:13;;;;;;;4.90;1.20;;;20.10;37.40;;;;;;5070531;28;20818;-67
2022/12/31 11:30:09;;;;;;;4.82;1.20;;;20.20;38.20;;;;;;5051461;28;20446;-61
2022/12/31 11:33:04;;;;;;;4.57;1.02;;;20.10;37.80;;;;;;5069497;28;20376;-62
2022/12/31 11:35:42;;;;;;;4.93;1.10;;;20.10;39.90;;;;;;5047619;28;20412;-61
2022/12/31 11:38:23;;;;;;;4.68;0.90;;;20.00;53.30;;;;;;5068475;28;20392;-62
2022/12/31 11:41:25;;;;;;;5.10;1.30;;;20.10;50.30;;;;;;5054722;28;20485;-63
2022/12/31 11:44:15;;;;;;;4.90;1.20;;;20.10;50.50;;;;;;5066197;28;20475;-67
2022/12/31 11:46:53;;;;;;;5.50;1.42;;;19.90;53.30;;;;;;5087262;28;20378;-63
2022/12/31 11:49:29;;;;;;;5.67;1.40;;;20.00;57.30;;;;;;5086762;28;20883;-62
2022/12/31 11:52:15;;;;;;;5.38;1.33;;;19.80;51.40;;;;;;5071016;28;20387;-63
2022/12/31 11:55:19;;;;;;;4.80;1.10;;;19.80;55.80;;;;;;5070622;28;20395;-63
2022/12/31 11:57:49;;;;;;;4.72;1.00;;;19.80;61.60;;;;;;5070806;28;20380;-63
2022/12/31 12:00:24;;;;;;;4.93;1.10;;;19.90;62.50;;;;;;5069723;28;20399;-62
2022/12/31 12:02:56;;;;;;;4.50;1.10;;;19.70;58.30;;;;;;5067298;28;20407;-69
2022/12/31 12:05:23;;;;;;;4.78;0.80;;;19.60;59.00;;;;;;5070142;28;20877;-63
2022/12/31 12:07:50;;;;;;;5.00;1.10;;;19.60;62.10;;;;;;5072459;28;20375;-69
2022/12/31 12:10:23;;;;;;;4.40;0.82;;;19.50;67.00;;;;;;5072545;28;20376;-62
2022/12/31 12:12:49;;;;;;;4.80;1.10;;;20.00;61.90;;;;;;5055727;28;20405;-69
2022/12/31 12:15:36;;;;;;;4.40;0.95;;;19.90;64.20;;;;;;5072111;28;20376;-62
2022/12/31 12:18:12;;;;;;;4.70;0.90;;;19.70;60.90;;;;;;5072485;28;20376;-63
2022/12/31 12:20:39;;;;;;;4.97;1.00;;;19.80;62.90;;;;;;5073039;28;20456;-62
2022/12/31 12:23:35;;;;;;;4.80;1.00;;;20.00;61.50;;;;;;5072091;28;20384;-62
2022/12/31 12:26:01;;;;;;;4.30;0.77;;;19.80;64.80;;;;;;5054844;28;20491;-62
2022/12/31 12:28:30;;;;;;;4.70;1.10;;;19.90;65.80;;;;;;5055162;28;20417;-62
2022/12/31 12:31:03;;;;;;;4.60;0.93;;;19.70;63.40;;;;;;5071546;28;20400;-62
2022/12/31 12:33:39;;;;;;;4.70;0.93;;;19.70;63.40;;;;;;5071561;28;20769;-62
2022/12/31 12:36:11;;;;;;;5.00;0.90;;;19.80;65.80;;;;;;5071577;28;20456;-62
2022/12/31 12:38:37;;;;;;;5.20;1.10;;;19.70;61.10;;;;;;5072426;28;20383;-65
2022/12/31 12:41:06;;;;;;;5.10;1.00;;;19.50;61.00;;;;;;5071530;28;20411;-66
2022/12/31 12:43:34;;;;;;;4.40;0.80;;;19.40;57.50;;;;;;5072448;28;20383;-62
2022/12/31 12:46:17;;;;;;;5.10;1.10;;;19.20;72.00;;;;;;5071803;28;20384;-62
2022/12/31 12:48:46;;;;;;;4.55;0.90;;;19.30;75.90;;;;;;5072412;28;20415;-61
2022/12/31 12:51:43;;;;;;;4.70;0.77;;;19.40;83.20;;;;;;5070464;28;20434;-62
2022/12/31 12:54:32;;;;;;;4.88;0.90;;;19.20;80.20;;;;;;5071828;28;20542;-63
2022/12/31 12:57:18;;;;;;;4.70;0.90;;;19.20;79.70;;;;;;5035727;28;20392;-62
2022/12/31 13:00:11;;;;;;;4.80;0.90;;;19.30;83.40;;;;;;5072190;28;20878;-63
2022/12/31 13:03:24;;;;;;;4.40;0.80;;;18.40;89.10;;;;;;5072543;28;20434;-67
2022/12/31 13:06:08;;;;;;;4.40;0.77;;;19.30;81.80;;;;;;5070357;28;20884;-68
2022/12/31 13:08:48;;;;;;;4.53;0.90;;;19.40;90.20;;;;;;5072495;28;20384;-63
2022/12/31 13:11:43;;;;;;;4.55;0.90;;;19.20;83.40;;;;;;5071156;28;20416;-63
2022/12/31 13:14:20;;;;;;;4.40;0.70;;;19.10;83.90;;;;;;5065905;28;20396;-62
2022/12/31 13:16:51;;;;;;;4.70;0.90;;;18.90;87.50;;;;;;5071510;28;20379;-59
2022/12/31 13:19:53;;;;;;;4.50;0.90;;;18.90;85.10;;;;;;5071993;28;20363;-59
2022/12/31 13:22:25;;;;;;;4.50;0.60;;;18.90;89.20;;;;;;5065504;28;20408;-59
2022/12/31 13:25:01;;;;;;;4.40;0.80;;;18.90;93.50;;;;;;5071129;28;20415;-64
2022/12/31 13:27:34;;;;;;;4.90;1.00;;;19.00;97.50;;;;;;5069732;28;22253;-59
2022/12/31 13:30:03;;;;;;;5.97;0.80;;;19.00;97.70;;;;;;5065179;28;20426;-59
2022/12/31 13:32:40;;;;;;;4.38;0.60;;;18.80;99.90;;;;;;5070855;28;20383;-59
2022/12/31 13:35:29;;;;;;;5.13;0.80;;;18.70;99.90;;;;;;5062978;28;20428;-60
2022/12/31 13:38:10;;;;;;;4.40;0.70;;;18.70;99.90;;;;;;5038588;28;20398;-60
2022/12/31 13:40:44;;;;;;;4.68;1.00;;;18.80;99.90;;;;;;5071095;28;20447;-59